sensor_id;sensor_type;location;lat;lon;timestamp;P1;durP1;ratioP1;P2;durP2;ratioP2
69588;SDS011;56792;50.644;17.984;2022-09-29T00:00:16;6.70;;;3.10;;
69588;SDS011;56792;50.644;17.984;2022-09-29T00:02:45;5.30;;;2.70;;
69588;SDS011;56792;50.644;17.984;2022-09-29T00:05:15;5.80;;;2.70;;
69588;SDS011;56792;50.644;17.984;2022-09-29T00:07:44;5.30;;;2.80;;
69588;SDS011;56792;50.644;17.984;2022-09-29T00:10:14;6.10;;;3.40;;
69588;SDS011;56792;50.644;17.984;2022-09-29T00:12:43;5.70;;;3.50;;
69588;SDS011;56792;50.644;17.984;2022-09-29T00:15:13;6.00;;;3.40;;
69588;SDS011;56792;50.644;17.984;2022-09-29T00:17:43;5.80;;;3.20;;
69588;SDS011;56792;50.644;17.984;2022-09-29T00:20:12;6.20;;;3.00;;
69588;SDS011;56792;50.644;17.984;2022-09-29T00:22:42;5.90;;;3.00;;
69588;SDS011;56792;50.644;17.984;2022-09-29T00:25:11;5.50;;;3.10;;
69588;SDS011;56792;50.644;17.984;2022-09-29T00:27:41;9.50;;;4.10;;
69588;SDS011;56792;50.644;17.984;2022-09-29T00:30:12;10.80;;;4.70;;
69588;SDS011;56792;50.644;17.984;2022-09-29T00:32:41;8.00;;;3.30;;
69588;SDS011;56792;50.644;17.984;2022-09-29T00:35:11;8.10;;;3.50;;
69588;SDS011;56792;50.644;17.984;2022-09-29T00:37:40;6.30;;;3.40;;
69588;SDS011;56792;50.644;17.984;2022-09-29T00:40:11;10.40;;;5.30;;
69588;SDS011;56792;50.644;17.984;2022-09-29T00:42:40;15.80;;;6.20;;
69588;SDS011;56792;50.644;17.984;2022-09-29T00:45:18;11.10;;;5.00;;
69588;SDS011;56792;50.644;17.984;2022-09-29T00:48:06;8.10;;;3.20;;
69588;SDS011;56792;50.644;17.984;2022-09-29T00:50:43;5.40;;;3.20;;
69588;SDS011;56792;50.644;17.984;2022-09-29T00:53:16;5.20;;;3.00;;
69588;SDS011;56792;50.644;17.984;2022-09-29T00:55:49;8.40;;;3.30;;
69588;SDS011;56792;50.644;17.984;2022-09-29T00:58:29;7.20;;;3.80;;
69588;SDS011;56792;50.644;17.984;2022-09-29T01:01:04;11.00;;;4.80;;
69588;SDS011;56792;50.644;17.984;2022-09-29T01:03:37;9.00;;;3.90;;
69588;SDS011;56792;50.644;17.984;2022-09-29T01:06:15;6.60;;;3.90;;
69588;SDS011;56792;50.644;17.984;2022-09-29T01:08:50;8.80;;;4.20;;
69588;SDS011;56792;50.644;17.984;2022-09-29T01:11:24;7.50;;;3.90;;
69588;SDS011;56792;50.644;17.984;2022-09-29T01:13:55;8.20;;;4.50;;
69588;SDS011;56792;50.644;17.984;2022-09-29T01:16:30;9.60;;;4.60;;
69588;SDS011;56792;50.644;17.984;2022-09-29T01:19:02;10.20;;;4.90;;
69588;SDS011;56792;50.644;17.984;2022-09-29T01:21:42;11.00;;;4.80;;
69588;SDS011;56792;50.644;17.984;2022-09-29T01:24:39;9.30;;;5.20;;
69588;SDS011;56792;50.644;17.984;2022-09-29T01:30:57;9.50;;;5.30;;
69588;SDS011;56792;50.644;17.984;2022-09-29T01:33:40;9.30;;;5.90;;
69588;SDS011;56792;50.644;17.984;2022-09-29T01:36:26;9.80;;;5.30;;
69588;SDS011;56792;50.644;17.984;2022-09-29T01:39:09;8.70;;;5.40;;
69588;SDS011;56792;50.644;17.984;2022-09-29T01:41:50;8.10;;;4.10;;
69588;SDS011;56792;50.644;17.984;2022-09-29T01:44:27;7.40;;;4.10;;
69588;SDS011;56792;50.644;17.984;2022-09-29T01:47:04;6.80;;;3.50;;
69588;SDS011;56792;50.644;17.984;2022-09-29T01:49:40;5.80;;;3.60;;
69588;SDS011;56792;50.644;17.984;2022-09-29T01:52:14;6.10;;;3.70;;
69588;SDS011;56792;50.644;17.984;2022-09-29T01:54:49;6.70;;;4.40;;
69588;SDS011;56792;50.644;17.984;2022-09-29T01:57:25;7.70;;;4.80;;
69588;SDS011;56792;50.644;17.984;2022-09-29T02:00:03;7.10;;;4.20;;
69588;SDS011;56792;50.644;17.984;2022-09-29T02:02:45;6.80;;;4.10;;
69588;SDS011;56792;50.644;17.984;2022-09-29T02:05:20;6.30;;;4.00;;
69588;SDS011;56792;50.644;17.984;2022-09-29T02:07:53;6.80;;;3.80;;
69588;SDS011;56792;50.644;17.984;2022-09-29T02:10:31;6.90;;;3.90;;
69588;SDS011;56792;50.644;17.984;2022-09-29T02:13:06;7.00;;;3.40;;
69588;SDS011;56792;50.644;17.984;2022-09-29T02:15:38;7.20;;;3.80;;
69588;SDS011;56792;50.644;17.984;2022-09-29T02:18:15;7.30;;;3.80;;
69588;SDS011;56792;50.644;17.984;2022-09-29T02:20:48;6.50;;;3.30;;
69588;SDS011;56792;50.644;17.984;2022-09-29T02:23:18;9.80;;;3.60;;
69588;SDS011;56792;50.644;17.984;2022-09-29T02:25:48;5.10;;;3.00;;
69588;SDS011;56792;50.644;17.984;2022-09-29T02:28:19;6.10;;;3.20;;
69588;SDS011;56792;50.644;17.984;2022-09-29T02:30:50;5.50;;;3.00;;
69588;SDS011;56792;50.644;17.984;2022-09-29T02:33:22;5.60;;;3.30;;
69588;SDS011;56792;50.644;17.984;2022-09-29T02:35:59;5.60;;;3.50;;
69588;SDS011;56792;50.644;17.984;2022-09-29T02:38:42;5.70;;;3.70;;
69588;SDS011;56792;50.644;17.984;2022-09-29T02:41:36;6.70;;;3.50;;
69588;SDS011;56792;50.644;17.984;2022-09-29T02:44:28;7.70;;;3.20;;
69588;SDS011;56792;50.644;17.984;2022-09-29T02:47:17;5.60;;;3.30;;
69588;SDS011;56792;50.644;17.984;2022-09-29T02:50:11;5.40;;;3.50;;
69588;SDS011;56792;50.644;17.984;2022-09-29T02:53:02;9.50;;;3.90;;
69588;SDS011;56792;50.644;17.984;2022-09-29T02:55:44;9.70;;;4.30;;
69588;SDS011;56792;50.644;17.984;2022-09-29T02:58:27;8.70;;;3.80;;
69588;SDS011;56792;50.644;17.984;2022-09-29T03:01:02;6.90;;;3.40;;
69588;SDS011;56792;50.644;17.984;2022-09-29T03:03:32;7.90;;;3.60;;
69588;SDS011;56792;50.644;17.984;2022-09-29T03:06:02;6.70;;;3.40;;
69588;SDS011;56792;50.644;17.984;2022-09-29T03:08:32;8.30;;;4.50;;
69588;SDS011;56792;50.644;17.984;2022-09-29T03:11:01;9.90;;;5.00;;
69588;SDS011;56792;50.644;17.984;2022-09-29T03:13:30;11.00;;;4.60;;
69588;SDS011;56792;50.644;17.984;2022-09-29T03:16:00;9.50;;;5.00;;
69588;SDS011;56792;50.644;17.984;2022-09-29T03:18:30;9.70;;;4.30;;
69588;SDS011;56792;50.644;17.984;2022-09-29T03:20:59;8.60;;;3.80;;
69588;SDS011;56792;50.644;17.984;2022-09-29T03:23:28;6.30;;;3.40;;
69588;SDS011;56792;50.644;17.984;2022-09-29T03:25:57;7.50;;;4.40;;
69588;SDS011;56792;50.644;17.984;2022-09-29T03:28:27;8.60;;;4.60;;
69588;SDS011;56792;50.644;17.984;2022-09-29T03:30:56;11.10;;;7.20;;
69588;SDS011;56792;50.644;17.984;2022-09-29T03:33:33;11.40;;;7.80;;
69588;SDS011;56792;50.644;17.984;2022-09-29T03:36:03;10.90;;;6.70;;
69588;SDS011;56792;50.644;17.984;2022-09-29T03:38:35;7.10;;;4.60;;
69588;SDS011;56792;50.644;17.984;2022-09-29T03:41:05;6.90;;;3.40;;
69588;SDS011;56792;50.644;17.984;2022-09-29T03:43:35;10.00;;;3.60;;
69588;SDS011;56792;50.644;17.984;2022-09-29T03:46:04;6.10;;;3.10;;
69588;SDS011;56792;50.644;17.984;2022-09-29T03:48:34;6.30;;;3.20;;
69588;SDS011;56792;50.644;17.984;2022-09-29T03:51:03;9.40;;;3.10;;
69588;SDS011;56792;50.644;17.984;2022-09-29T03:53:34;8.50;;;3.50;;
69588;SDS011;56792;50.644;17.984;2022-09-29T03:56:05;5.20;;;3.10;;
69588;SDS011;56792;50.644;17.984;2022-09-29T03:58:35;5.10;;;3.40;;
69588;SDS011;56792;50.644;17.984;2022-09-29T04:01:05;7.20;;;4.20;;
69588;SDS011;56792;50.644;17.984;2022-09-29T04:03:34;6.90;;;4.10;;
69588;SDS011;56792;50.644;17.984;2022-09-29T04:06:04;8.50;;;5.20;;
69588;SDS011;56792;50.644;17.984;2022-09-29T04:08:36;9.10;;;5.80;;
69588;SDS011;56792;50.644;17.984;2022-09-29T04:11:06;8.70;;;5.00;;
69588;SDS011;56792;50.644;17.984;2022-09-29T04:13:35;8.30;;;4.10;;
69588;SDS011;56792;50.644;17.984;2022-09-29T04:16:06;8.30;;;4.60;;
69588;SDS011;56792;50.644;17.984;2022-09-29T04:18:36;8.50;;;4.70;;
69588;SDS011;56792;50.644;17.984;2022-09-29T04:21:07;7.80;;;4.20;;
69588;SDS011;56792;50.644;17.984;2022-09-29T04:23:37;7.30;;;4.50;;
69588;SDS011;56792;50.644;17.984;2022-09-29T04:26:07;8.20;;;5.10;;
69588;SDS011;56792;50.644;17.984;2022-09-29T04:28:37;10.20;;;5.90;;
69588;SDS011;56792;50.644;17.984;2022-09-29T04:31:07;12.90;;;6.60;;
69588;SDS011;56792;50.644;17.984;2022-09-29T04:33:37;14.00;;;7.70;;
69588;SDS011;56792;50.644;17.984;2022-09-29T04:36:08;18.30;;;10.60;;
69588;SDS011;56792;50.644;17.984;2022-09-29T04:38:37;26.80;;;15.00;;
69588;SDS011;56792;50.644;17.984;2022-09-29T04:41:07;23.50;;;14.40;;
69588;SDS011;56792;50.644;17.984;2022-09-29T04:43:37;17.70;;;11.60;;
69588;SDS011;56792;50.644;17.984;2022-09-29T04:46:08;14.10;;;8.30;;
69588;SDS011;56792;50.644;17.984;2022-09-29T04:48:38;12.60;;;8.20;;
69588;SDS011;56792;50.644;17.984;2022-09-29T04:51:08;13.20;;;7.80;;
69588;SDS011;56792;50.644;17.984;2022-09-29T04:53:38;9.70;;;6.50;;
69588;SDS011;56792;50.644;17.984;2022-09-29T04:56:08;11.30;;;5.70;;
69588;SDS011;56792;50.644;17.984;2022-09-29T04:58:38;10.80;;;6.70;;
69588;SDS011;56792;50.644;17.984;2022-09-29T05:01:09;9.60;;;6.80;;
69588;SDS011;56792;50.644;17.984;2022-09-29T05:03:40;11.80;;;7.00;;
69588;SDS011;56792;50.644;17.984;2022-09-29T05:06:10;10.80;;;7.40;;
69588;SDS011;56792;50.644;17.984;2022-09-29T05:08:39;9.60;;;6.50;;
69588;SDS011;56792;50.644;17.984;2022-09-29T05:11:10;9.40;;;6.50;;
69588;SDS011;56792;50.644;17.984;2022-09-29T05:13:39;9.10;;;6.10;;
69588;SDS011;56792;50.644;17.984;2022-09-29T05:16:09;9.10;;;5.40;;
69588;SDS011;56792;50.644;17.984;2022-09-29T05:18:38;9.00;;;5.80;;
69588;SDS011;56792;50.644;17.984;2022-09-29T05:21:08;10.40;;;6.40;;
69588;SDS011;56792;50.644;17.984;2022-09-29T05:23:38;12.20;;;6.90;;
69588;SDS011;56792;50.644;17.984;2022-09-29T05:26:09;9.90;;;5.80;;
69588;SDS011;56792;50.644;17.984;2022-09-29T05:28:44;7.30;;;4.70;;
69588;SDS011;56792;50.644;17.984;2022-09-29T05:31:15;7.90;;;4.30;;
69588;SDS011;56792;50.644;17.984;2022-09-29T05:33:45;6.80;;;4.20;;
69588;SDS011;56792;50.644;17.984;2022-09-29T05:36:14;9.00;;;3.90;;
69588;SDS011;56792;50.644;17.984;2022-09-29T05:38:44;6.40;;;4.10;;
69588;SDS011;56792;50.644;17.984;2022-09-29T05:41:14;8.10;;;4.30;;
69588;SDS011;56792;50.644;17.984;2022-09-29T05:43:45;8.70;;;5.10;;
69588;SDS011;56792;50.644;17.984;2022-09-29T05:46:15;6.30;;;4.50;;
69588;SDS011;56792;50.644;17.984;2022-09-29T05:48:45;7.30;;;4.80;;
69588;SDS011;56792;50.644;17.984;2022-09-29T05:51:16;7.30;;;4.70;;
69588;SDS011;56792;50.644;17.984;2022-09-29T05:53:47;8.80;;;5.00;;
69588;SDS011;56792;50.644;17.984;2022-09-29T05:56:18;6.60;;;4.60;;
69588;SDS011;56792;50.644;17.984;2022-09-29T05:58:48;7.40;;;4.80;;
69588;SDS011;56792;50.644;17.984;2022-09-29T06:01:20;8.30;;;4.90;;
69588;SDS011;56792;50.644;17.984;2022-09-29T06:03:51;8.70;;;5.40;;
69588;SDS011;56792;50.644;17.984;2022-09-29T06:06:22;9.70;;;5.30;;
69588;SDS011;56792;50.644;17.984;2022-09-29T06:08:54;8.60;;;5.10;;
69588;SDS011;56792;50.644;17.984;2022-09-29T06:11:25;8.10;;;5.50;;
69588;SDS011;56792;50.644;17.984;2022-09-29T06:13:58;9.50;;;5.50;;
69588;SDS011;56792;50.644;17.984;2022-09-29T06:16:30;10.00;;;5.00;;
69588;SDS011;56792;50.644;17.984;2022-09-29T06:19:01;7.80;;;4.50;;
69588;SDS011;56792;50.644;17.984;2022-09-29T06:21:32;8.70;;;4.20;;
69588;SDS011;56792;50.644;17.984;2022-09-29T06:24:04;7.80;;;4.60;;
69588;SDS011;56792;50.644;17.984;2022-09-29T06:26:34;7.90;;;4.70;;
69588;SDS011;56792;50.644;17.984;2022-09-29T06:29:04;9.20;;;4.40;;
69588;SDS011;56792;50.644;17.984;2022-09-29T06:31:34;7.40;;;4.60;;
69588;SDS011;56792;50.644;17.984;2022-09-29T06:34:04;8.60;;;4.40;;
69588;SDS011;56792;50.644;17.984;2022-09-29T06:36:37;8.40;;;5.00;;
69588;SDS011;56792;50.644;17.984;2022-09-29T06:39:27;6.60;;;4.00;;
69588;SDS011;56792;50.644;17.984;2022-09-29T06:41:57;7.60;;;4.40;;
69588;SDS011;56792;50.644;17.984;2022-09-29T06:44:27;7.40;;;4.30;;
69588;SDS011;56792;50.644;17.984;2022-09-29T06:46:57;7.70;;;4.00;;
69588;SDS011;56792;50.644;17.984;2022-09-29T06:49:27;6.90;;;4.40;;
69588;SDS011;56792;50.644;17.984;2022-09-29T06:51:56;8.80;;;4.30;;
69588;SDS011;56792;50.644;17.984;2022-09-29T06:54:26;6.50;;;3.90;;
69588;SDS011;56792;50.644;17.984;2022-09-29T06:56:55;9.50;;;5.30;;
69588;SDS011;56792;50.644;17.984;2022-09-29T06:59:25;7.70;;;4.60;;
69588;SDS011;56792;50.644;17.984;2022-09-29T07:01:54;7.60;;;4.80;;
69588;SDS011;56792;50.644;17.984;2022-09-29T07:04:25;8.30;;;5.10;;
69588;SDS011;56792;50.644;17.984;2022-09-29T07:06:54;7.80;;;4.90;;
69588;SDS011;56792;50.644;17.984;2022-09-29T07:09:24;7.20;;;4.70;;
69588;SDS011;56792;50.644;17.984;2022-09-29T07:11:53;7.20;;;4.40;;
69588;SDS011;56792;50.644;17.984;2022-09-29T07:14:24;9.10;;;4.70;;
69588;SDS011;56792;50.644;17.984;2022-09-29T07:16:53;7.90;;;5.30;;
69588;SDS011;56792;50.644;17.984;2022-09-29T07:19:25;7.80;;;4.00;;
69588;SDS011;56792;50.644;17.984;2022-09-29T07:21:55;7.00;;;4.30;;
69588;SDS011;56792;50.644;17.984;2022-09-29T07:24:25;6.90;;;4.30;;
69588;SDS011;56792;50.644;17.984;2022-09-29T07:26:54;6.90;;;4.40;;
69588;SDS011;56792;50.644;17.984;2022-09-29T07:29:23;6.80;;;4.40;;
69588;SDS011;56792;50.644;17.984;2022-09-29T07:31:53;6.20;;;4.00;;
69588;SDS011;56792;50.644;17.984;2022-09-29T07:34:22;6.40;;;3.90;;
69588;SDS011;56792;50.644;17.984;2022-09-29T07:36:52;6.00;;;3.90;;
69588;SDS011;56792;50.644;17.984;2022-09-29T07:39:21;8.30;;;4.40;;
69588;SDS011;56792;50.644;17.984;2022-09-29T07:41:51;6.80;;;4.30;;
69588;SDS011;56792;50.644;17.984;2022-09-29T07:44:21;7.00;;;4.40;;
69588;SDS011;56792;50.644;17.984;2022-09-29T07:46:51;7.40;;;4.50;;
69588;SDS011;56792;50.644;17.984;2022-09-29T07:49:20;6.10;;;4.30;;
69588;SDS011;56792;50.644;17.984;2022-09-29T07:51:50;6.70;;;4.60;;
69588;SDS011;56792;50.644;17.984;2022-09-29T07:54:19;7.60;;;4.20;;
69588;SDS011;56792;50.644;17.984;2022-09-29T07:56:49;7.20;;;4.60;;
69588;SDS011;56792;50.644;17.984;2022-09-29T07:59:19;6.30;;;4.20;;
69588;SDS011;56792;50.644;17.984;2022-09-29T08:01:48;6.10;;;4.20;;
69588;SDS011;56792;50.644;17.984;2022-09-29T08:04:18;6.30;;;4.30;;
69588;SDS011;56792;50.644;17.984;2022-09-29T08:06:48;6.00;;;3.90;;
69588;SDS011;56792;50.644;17.984;2022-09-29T08:09:17;6.10;;;3.90;;
69588;SDS011;56792;50.644;17.984;2022-09-29T08:11:46;6.50;;;3.90;;
69588;SDS011;56792;50.644;17.984;2022-09-29T08:14:16;6.80;;;4.00;;
69588;SDS011;56792;50.644;17.984;2022-09-29T08:16:45;5.10;;;3.60;;
69588;SDS011;56792;50.644;17.984;2022-09-29T08:19:15;5.30;;;3.10;;
69588;SDS011;56792;50.644;17.984;2022-09-29T08:21:44;5.30;;;3.50;;
69588;SDS011;56792;50.644;17.984;2022-09-29T08:24:16;6.20;;;3.50;;
69588;SDS011;56792;50.644;17.984;2022-09-29T08:26:45;5.60;;;3.10;;
69588;SDS011;56792;50.644;17.984;2022-09-29T08:29:15;5.20;;;3.60;;
69588;SDS011;56792;50.644;17.984;2022-09-29T08:31:45;4.90;;;3.40;;
69588;SDS011;56792;50.644;17.984;2022-09-29T08:34:15;5.80;;;3.50;;
69588;SDS011;56792;50.644;17.984;2022-09-29T08:36:44;7.20;;;3.90;;
69588;SDS011;56792;50.644;17.984;2022-09-29T08:39:14;5.60;;;3.20;;
69588;SDS011;56792;50.644;17.984;2022-09-29T08:41:55;5.20;;;3.30;;
69588;SDS011;56792;50.644;17.984;2022-09-29T08:44:34;5.80;;;3.60;;
69588;SDS011;56792;50.644;17.984;2022-09-29T08:47:15;4.80;;;3.30;;
69588;SDS011;56792;50.644;17.984;2022-09-29T08:49:51;5.70;;;3.30;;
69588;SDS011;56792;50.644;17.984;2022-09-29T08:52:27;5.60;;;3.50;;
69588;SDS011;56792;50.644;17.984;2022-09-29T08:55:19;5.30;;;3.90;;
69588;SDS011;56792;50.644;17.984;2022-09-29T08:57:56;5.90;;;3.30;;
69588;SDS011;56792;50.644;17.984;2022-09-29T09:00:33;6.80;;;3.90;;
69588;SDS011;56792;50.644;17.984;2022-09-29T09:03:31;11.40;;;6.40;;
69588;SDS011;56792;50.644;17.984;2022-09-29T09:06:16;5.30;;;3.10;;
69588;SDS011;56792;50.644;17.984;2022-09-29T09:09:04;5.40;;;3.30;;
69588;SDS011;56792;50.644;17.984;2022-09-29T09:18:13;12.00;;;5.90;;
69588;SDS011;56792;50.644;17.984;2022-09-29T09:21:01;7.20;;;3.90;;
69588;SDS011;56792;50.644;17.984;2022-09-29T09:23:43;8.40;;;5.00;;
69588;SDS011;56792;50.644;17.984;2022-09-29T09:26:25;5.70;;;3.70;;
69588;SDS011;56792;50.644;17.984;2022-09-29T09:29:02;11.00;;;6.30;;
69588;SDS011;56792;50.644;17.984;2022-09-29T09:31:42;9.30;;;5.90;;
69588;SDS011;56792;50.644;17.984;2022-09-29T09:34:17;6.30;;;3.60;;
69588;SDS011;56792;50.644;17.984;2022-09-29T09:36:57;5.80;;;3.80;;
69588;SDS011;56792;50.644;17.984;2022-09-29T09:39:31;6.10;;;3.30;;
69588;SDS011;56792;50.644;17.984;2022-09-29T09:42:17;5.80;;;2.70;;
69588;SDS011;56792;50.644;17.984;2022-09-29T09:44:52;4.50;;;3.00;;
69588;SDS011;56792;50.644;17.984;2022-09-29T09:47:27;4.40;;;3.00;;
69588;SDS011;56792;50.644;17.984;2022-09-29T09:50:02;4.90;;;3.40;;
69588;SDS011;56792;50.644;17.984;2022-09-29T09:52:43;6.00;;;5.00;;
69588;SDS011;56792;50.644;17.984;2022-09-29T09:55:17;5.30;;;4.80;;
69588;SDS011;56792;50.644;17.984;2022-09-29T09:58:08;5.60;;;4.90;;
69588;SDS011;56792;50.644;17.984;2022-09-29T10:00:56;4.00;;;3.40;;
69588;SDS011;56792;50.644;17.984;2022-09-29T10:03:29;5.20;;;4.70;;
69588;SDS011;56792;50.644;17.984;2022-09-29T10:05:59;5.00;;;4.50;;
69588;SDS011;56792;50.644;17.984;2022-09-29T10:08:30;4.60;;;3.60;;
69588;SDS011;56792;50.644;17.984;2022-09-29T10:11:15;5.00;;;4.50;;
69588;SDS011;56792;50.644;17.984;2022-09-29T10:13:59;4.10;;;3.70;;
69588;SDS011;56792;50.644;17.984;2022-09-29T10:16:37;4.90;;;3.90;;
69588;SDS011;56792;50.644;17.984;2022-09-29T10:19:12;3.50;;;3.20;;
69588;SDS011;56792;50.644;17.984;2022-09-29T10:21:42;5.40;;;4.60;;
69588;SDS011;56792;50.644;17.984;2022-09-29T10:24:27;6.00;;;5.50;;
69588;SDS011;56792;50.644;17.984;2022-09-29T10:26:59;5.40;;;4.90;;
69588;SDS011;56792;50.644;17.984;2022-09-29T10:29:36;5.60;;;5.00;;
69588;SDS011;56792;50.644;17.984;2022-09-29T10:32:09;6.00;;;5.50;;
69588;SDS011;56792;50.644;17.984;2022-09-29T10:34:45;5.80;;;5.30;;
69588;SDS011;56792;50.644;17.984;2022-09-29T10:37:21;5.80;;;5.30;;
69588;SDS011;56792;50.644;17.984;2022-09-29T10:40:09;4.80;;;4.20;;
69588;SDS011;56792;50.644;17.984;2022-09-29T10:42:45;4.20;;;3.50;;
69588;SDS011;56792;50.644;17.984;2022-09-29T10:45:19;5.10;;;4.60;;
69588;SDS011;56792;50.644;17.984;2022-09-29T10:48:07;5.00;;;4.40;;
69588;SDS011;56792;50.644;17.984;2022-09-29T10:50:50;4.10;;;3.00;;
69588;SDS011;56792;50.644;17.984;2022-09-29T10:53:27;4.70;;;3.50;;
69588;SDS011;56792;50.644;17.984;2022-09-29T10:56:07;4.80;;;4.30;;
69588;SDS011;56792;50.644;17.984;2022-09-29T10:58:44;3.40;;;2.20;;
69588;SDS011;56792;50.644;17.984;2022-09-29T11:01:22;4.80;;;3.10;;
69588;SDS011;56792;50.644;17.984;2022-09-29T11:03:55;5.20;;;3.50;;
69588;SDS011;56792;50.644;17.984;2022-09-29T11:06:31;4.10;;;3.60;;
69588;SDS011;56792;50.644;17.984;2022-09-29T11:09:04;4.50;;;3.10;;
69588;SDS011;56792;50.644;17.984;2022-09-29T11:11:36;8.50;;;6.50;;
69588;SDS011;56792;50.644;17.984;2022-09-29T11:14:24;5.00;;;4.50;;
69588;SDS011;56792;50.644;17.984;2022-09-29T11:16:56;4.90;;;4.40;;
69588;SDS011;56792;50.644;17.984;2022-09-29T11:19:29;12.20;;;10.10;;
69588;SDS011;56792;50.644;17.984;2022-09-29T11:22:21;5.50;;;4.10;;
69588;SDS011;56792;50.644;17.984;2022-09-29T11:25:22;5.30;;;4.80;;
69588;SDS011;56792;50.644;17.984;2022-09-29T11:28:30;5.00;;;4.30;;
69588;SDS011;56792;50.644;17.984;2022-09-29T11:31:29;5.70;;;5.20;;
69588;SDS011;56792;50.644;17.984;2022-09-29T11:37:28;5.60;;;4.90;;
69588;SDS011;56792;50.644;17.984;2022-09-29T11:40:13;4.50;;;4.10;;
69588;SDS011;56792;50.644;17.984;2022-09-29T11:43:09;4.90;;;4.40;;
69588;SDS011;56792;50.644;17.984;2022-09-29T11:45:58;4.90;;;4.50;;
69588;SDS011;56792;50.644;17.984;2022-09-29T11:48:55;4.50;;;3.10;;
69588;SDS011;56792;50.644;17.984;2022-09-29T11:52:00;4.20;;;3.50;;
69588;SDS011;56792;50.644;17.984;2022-09-29T11:54:52;5.20;;;4.20;;
69588;SDS011;56792;50.644;17.984;2022-09-29T11:57:43;4.10;;;2.80;;
69588;SDS011;56792;50.644;17.984;2022-09-29T12:00:28;5.90;;;3.00;;
69588;SDS011;56792;50.644;17.984;2022-09-29T12:03:21;4.00;;;2.90;;
69588;SDS011;56792;50.644;17.984;2022-09-29T12:06:21;5.50;;;4.80;;
69588;SDS011;56792;50.644;17.984;2022-09-29T12:09:16;4.50;;;2.60;;
69588;SDS011;56792;50.644;17.984;2022-09-29T12:12:03;3.60;;;2.10;;
69588;SDS011;56792;50.644;17.984;2022-09-29T12:15:04;4.40;;;2.00;;
69588;SDS011;56792;50.644;17.984;2022-09-29T12:17:42;3.70;;;2.10;;
69588;SDS011;56792;50.644;17.984;2022-09-29T12:20:18;3.30;;;2.10;;
69588;SDS011;56792;50.644;17.984;2022-09-29T12:22:52;4.90;;;2.70;;
69588;SDS011;56792;50.644;17.984;2022-09-29T12:25:26;4.40;;;2.60;;
69588;SDS011;56792;50.644;17.984;2022-09-29T12:28:01;4.60;;;3.50;;
69588;SDS011;56792;50.644;17.984;2022-09-29T12:30:44;4.10;;;2.40;;
69588;SDS011;56792;50.644;17.984;2022-09-29T12:33:21;4.40;;;2.50;;
69588;SDS011;56792;50.644;17.984;2022-09-29T12:39:26;3.30;;;2.30;;
69588;SDS011;56792;50.644;17.984;2022-09-29T12:45:10;3.70;;;2.40;;
69588;SDS011;56792;50.644;17.984;2022-09-29T12:47:53;4.90;;;2.30;;
69588;SDS011;56792;50.644;17.984;2022-09-29T12:50:32;5.10;;;2.60;;
69588;SDS011;56792;50.644;17.984;2022-09-29T12:53:12;3.30;;;2.10;;
69588;SDS011;56792;50.644;17.984;2022-09-29T12:55:52;3.60;;;2.30;;
69588;SDS011;56792;50.644;17.984;2022-09-29T12:58:31;3.90;;;2.20;;
69588;SDS011;56792;50.644;17.984;2022-09-29T13:01:20;3.20;;;1.60;;
69588;SDS011;56792;50.644;17.984;2022-09-29T13:10:41;3.10;;;1.60;;
69588;SDS011;56792;50.644;17.984;2022-09-29T13:13:46;4.60;;;2.10;;
69588;SDS011;56792;50.644;17.984;2022-09-29T13:16:37;3.50;;;1.80;;
69588;SDS011;56792;50.644;17.984;2022-09-29T13:19:41;3.10;;;1.90;;
69588;SDS011;56792;50.644;17.984;2022-09-29T13:22:55;3.40;;;2.00;;
69588;SDS011;56792;50.644;17.984;2022-09-29T13:25:42;4.10;;;2.30;;
69588;SDS011;56792;50.644;17.984;2022-09-29T13:28:30;3.20;;;2.20;;
69588;SDS011;56792;50.644;17.984;2022-09-29T13:31:03;3.10;;;1.80;;
69588;SDS011;56792;50.644;17.984;2022-09-29T13:33:35;3.50;;;1.70;;
69588;SDS011;56792;50.644;17.984;2022-09-29T13:36:06;2.70;;;1.70;;
69588;SDS011;56792;50.644;17.984;2022-09-29T13:38:37;3.30;;;1.70;;
69588;SDS011;56792;50.644;17.984;2022-09-29T13:41:15;3.50;;;1.20;;
69588;SDS011;56792;50.644;17.984;2022-09-29T13:44:21;2.70;;;1.50;;
69588;SDS011;56792;50.644;17.984;2022-09-29T13:46:53;2.80;;;1.30;;
69588;SDS011;56792;50.644;17.984;2022-09-29T13:49:28;5.90;;;1.70;;
69588;SDS011;56792;50.644;17.984;2022-09-29T13:52:00;3.30;;;1.60;;
69588;SDS011;56792;50.644;17.984;2022-09-29T13:58:22;3.80;;;1.70;;
69588;SDS011;56792;50.644;17.984;2022-09-29T14:00:55;3.30;;;1.70;;
69588;SDS011;56792;50.644;17.984;2022-09-29T14:03:32;7.10;;;1.90;;
69588;SDS011;56792;50.644;17.984;2022-09-29T14:06:11;3.30;;;1.40;;
69588;SDS011;56792;50.644;17.984;2022-09-29T14:08:44;3.40;;;1.60;;
69588;SDS011;56792;50.644;17.984;2022-09-29T14:11:22;3.70;;;1.90;;
69588;SDS011;56792;50.644;17.984;2022-09-29T14:13:59;3.50;;;1.60;;
69588;SDS011;56792;50.644;17.984;2022-09-29T14:16:47;3.40;;;1.30;;
69588;SDS011;56792;50.644;17.984;2022-09-29T14:19:49;3.60;;;1.70;;
69588;SDS011;56792;50.644;17.984;2022-09-29T14:22:51;3.10;;;1.50;;
69588;SDS011;56792;50.644;17.984;2022-09-29T14:25:52;3.00;;;1.40;;
69588;SDS011;56792;50.644;17.984;2022-09-29T14:28:38;3.60;;;1.50;;
69588;SDS011;56792;50.644;17.984;2022-09-29T14:31:21;3.30;;;1.60;;
69588;SDS011;56792;50.644;17.984;2022-09-29T14:33:55;3.20;;;1.60;;
69588;SDS011;56792;50.644;17.984;2022-09-29T14:36:31;3.00;;;1.40;;
69588;SDS011;56792;50.644;17.984;2022-09-29T14:39:02;3.50;;;1.80;;
69588;SDS011;56792;50.644;17.984;2022-09-29T14:41:40;3.60;;;1.40;;
69588;SDS011;56792;50.644;17.984;2022-09-29T14:44:14;3.70;;;1.80;;
69588;SDS011;56792;50.644;17.984;2022-09-29T14:46:59;3.60;;;1.80;;
69588;SDS011;56792;50.644;17.984;2022-09-29T14:50:15;4.40;;;1.80;;
69588;SDS011;56792;50.644;17.984;2022-09-29T14:53:20;3.80;;;2.00;;
69588;SDS011;56792;50.644;17.984;2022-09-29T14:56:19;4.00;;;2.30;;
69588;SDS011;56792;50.644;17.984;2022-09-29T14:59:12;4.10;;;1.70;;
69588;SDS011;56792;50.644;17.984;2022-09-29T15:02:08;3.60;;;1.60;;
69588;SDS011;56792;50.644;17.984;2022-09-29T15:04:47;4.10;;;1.90;;
69588;SDS011;56792;50.644;17.984;2022-09-29T15:07:18;4.80;;;2.40;;
69588;SDS011;56792;50.644;17.984;2022-09-29T15:09:51;4.70;;;2.10;;
69588;SDS011;56792;50.644;17.984;2022-09-29T15:12:24;4.70;;;2.30;;
69588;SDS011;56792;50.644;17.984;2022-09-29T15:14:55;4.80;;;2.10;;
69588;SDS011;56792;50.644;17.984;2022-09-29T15:17:37;3.70;;;2.00;;
69588;SDS011;56792;50.644;17.984;2022-09-29T15:20:21;4.80;;;2.30;;
69588;SDS011;56792;50.644;17.984;2022-09-29T15:23:12;5.60;;;2.40;;
69588;SDS011;56792;50.644;17.984;2022-09-29T15:25:56;5.90;;;2.80;;
69588;SDS011;56792;50.644;17.984;2022-09-29T15:28:31;7.10;;;2.80;;
69588;SDS011;56792;50.644;17.984;2022-09-29T15:31:07;5.90;;;2.70;;
69588;SDS011;56792;50.644;17.984;2022-09-29T15:33:39;5.70;;;2.70;;
69588;SDS011;56792;50.644;17.984;2022-09-29T15:36:18;7.30;;;2.40;;
69588;SDS011;56792;50.644;17.984;2022-09-29T15:38:52;5.30;;;2.20;;
69588;SDS011;56792;50.644;17.984;2022-09-29T15:41:25;5.10;;;2.40;;
69588;SDS011;56792;50.644;17.984;2022-09-29T15:43:58;5.30;;;2.50;;
69588;SDS011;56792;50.644;17.984;2022-09-29T15:46:36;4.70;;;2.40;;
69588;SDS011;56792;50.644;17.984;2022-09-29T15:49:16;7.10;;;2.50;;
69588;SDS011;56792;50.644;17.984;2022-09-29T15:51:56;4.70;;;2.90;;
69588;SDS011;56792;50.644;17.984;2022-09-29T15:54:29;4.70;;;2.70;;
69588;SDS011;56792;50.644;17.984;2022-09-29T15:57:01;4.90;;;2.50;;